createdAt,value
2018-03-23T00:01:09.708Z,60.43
2018-03-23T00:03:37.739Z,58.63
2018-03-23T00:06:05.772Z,66.00
2018-03-23T00:08:33.844Z,64.50
2018-03-23T00:11:01.867Z,62.57
2018-03-23T00:13:29.915Z,62.07
2018-03-23T00:15:57.976Z,63.73
2018-03-23T00:18:26.008Z,68.53
2018-03-23T00:20:54.053Z,63.20
2018-03-23T00:23:22.103Z,65.00
2018-03-23T00:25:50.932Z,65.70
2018-03-23T00:28:18.999Z,59.30
2018-03-23T00:30:47.032Z,65.57
2018-03-23T00:33:15.087Z,67.93
2018-03-23T00:35:43.128Z,67.27
2018-03-23T00:38:11.196Z,67.47
2018-03-23T00:40:39.237Z,67.50
2018-03-23T00:43:07.267Z,61.97
2018-03-23T00:45:35.316Z,67.50
2018-03-23T00:48:03.387Z,66.07
2018-03-23T00:50:31.440Z,63.80
2018-03-23T00:53:00.248Z,66.70
2018-03-23T00:55:29.064Z,66.00
2018-03-23T00:57:57.110Z,68.60
2018-03-23T01:00:25.437Z,64.00
2018-03-23T01:02:53.497Z,64.13
2018-03-23T01:05:21.534Z,65.03
2018-03-23T01:07:49.592Z,63.27
2018-03-23T01:10:17.640Z,63.40
2018-03-23T01:12:45.697Z,61.27
2018-03-23T01:15:13.736Z,63.33
2018-03-23T01:17:42.564Z,63.60
2018-03-23T01:20:10.609Z,66.57
2018-03-23T01:22:41.393Z,63.47
2018-03-23T01:25:10.184Z,59.90
2018-03-23T01:27:38.271Z,65.87
2018-03-23T01:30:07.065Z,61.37
2018-03-23T01:32:35.122Z,60.20
2018-03-23T01:35:03.162Z,59.30
2018-03-23T01:37:31.228Z,60.43
2018-03-23T01:39:59.279Z,60.40
2018-03-23T01:42:27.317Z,59.30
2018-03-23T01:44:55.372Z,59.33
2018-03-23T01:47:23.414Z,59.73
2018-03-23T01:49:51.472Z,58.07
2018-03-23T01:52:19.513Z,63.80
2018-03-23T01:54:48.340Z,60.33
2018-03-23T01:57:16.423Z,60.63
2018-03-23T01:59:45.221Z,67.53
2018-03-23T02:02:13.260Z,62.83
2018-03-23T02:04:41.321Z,60.87
2018-03-23T02:07:09.380Z,59.97
2018-03-23T02:09:37.429Z,68.13
2018-03-23T02:12:06.249Z,56.33
2018-03-23T02:14:34.288Z,63.50
2018-03-23T02:17:02.358Z,62.87
2018-03-23T02:19:30.397Z,63.43
2018-03-23T02:21:59.316Z,58.90
2018-03-23T02:24:27.376Z,64.07
2018-03-23T02:26:56.180Z,65.07
2018-03-23T02:29:25.015Z,62.33
2018-03-23T02:31:53.053Z,62.87
2018-03-23T02:34:21.098Z,68.30
2018-03-23T02:36:49.165Z,68.43
2018-03-23T02:39:17.204Z,64.73
2018-03-23T02:41:45.248Z,59.20
2018-03-23T02:44:13.315Z,61.07
2018-03-23T02:46:41.360Z,66.23
2018-03-23T02:49:10.198Z,70.47
2018-03-23T02:51:38.247Z,65.93
2018-03-23T02:54:07.077Z,68.53
2018-03-23T02:56:35.273Z,73.20
2018-03-23T02:59:03.308Z,70.07
2018-03-23T03:01:31.489Z,68.37
2018-03-23T03:03:59.476Z,67.93
2018-03-23T03:06:27.535Z,67.73
2018-03-23T03:08:55.589Z,74.63
2018-03-23T03:11:23.653Z,69.10
2018-03-23T03:13:52.472Z,69.43
2018-03-23T03:16:20.509Z,71.97
2018-03-23T03:18:49.328Z,74.20
2018-03-23T03:21:18.145Z,68.00
2018-03-23T03:23:47.004Z,68.43
2018-03-23T03:26:15.057Z,69.23
2018-03-23T03:28:43.095Z,65.77
2018-03-23T03:31:11.141Z,68.77
2018-03-23T03:33:39.201Z,68.60
2018-03-23T03:36:07.240Z,71.30
2018-03-23T03:38:36.061Z,65.17
2018-03-23T03:41:04.864Z,66.70
2018-03-23T03:43:33.688Z,68.40
2018-03-23T03:46:01.734Z,65.97
2018-03-23T03:48:29.792Z,63.90
2018-03-23T03:50:57.833Z,61.50
2018-03-23T03:53:25.888Z,60.67
2018-03-23T03:55:53.944Z,63.40
2018-03-23T03:58:21.987Z,59.93
2018-03-23T04:00:50.804Z,59.93
2018-03-23T04:03:18.844Z,60.20
2018-03-23T04:05:46.893Z,61.57
2018-03-23T04:08:15.033Z,64.27
2018-03-23T04:10:43.852Z,61.30
2018-03-23T04:13:11.905Z,66.70
2018-03-23T04:15:39.973Z,64.30
2018-03-23T04:18:08.014Z,62.63
2018-03-23T04:20:36.112Z,65.77
2018-03-23T04:23:04.164Z,60.93
2018-03-23T04:25:32.991Z,63.33
2018-03-23T04:28:01.034Z,62.23
2018-03-23T04:30:29.853Z,66.73
2018-03-23T04:32:58.688Z,64.90
2018-03-23T04:35:26.733Z,65.00
2018-03-23T04:37:55.536Z,71.27
2018-03-23T04:40:24.361Z,69.80
2018-03-23T04:42:52.420Z,74.10
2018-03-23T04:45:21.224Z,74.80
2018-03-23T04:47:50.129Z,73.07
2018-03-23T04:50:18.131Z,79.43
2018-03-23T04:52:46.176Z,71.27
2018-03-23T04:55:14.232Z,75.10
2018-03-23T04:57:42.344Z,74.40
2018-03-23T05:00:10.411Z,75.23
2018-03-23T05:02:38.452Z,73.27
2018-03-23T05:05:06.506Z,75.87
2018-03-23T05:07:35.316Z,76.97
2018-03-23T05:10:04.136Z,76.00
2018-03-23T05:12:32.193Z,75.73
2018-03-23T05:15:00.310Z,73.77
2018-03-23T05:17:28.360Z,72.23
2018-03-23T05:19:57.168Z,71.37
2018-03-23T05:22:26.000Z,74.43
2018-03-23T05:24:54.029Z,77.03
2018-03-23T05:27:22.088Z,77.33
2018-03-23T05:29:50.145Z,82.87
2018-03-23T05:32:18.185Z,71.77
2018-03-23T05:34:46.261Z,80.50
2018-03-23T05:37:14.302Z,74.83
2018-03-23T05:39:42.336Z,75.37
2018-03-23T05:42:10.397Z,78.43
2018-03-23T05:44:38.457Z,72.70
2018-03-23T05:47:06.537Z,78.07
2018-03-23T05:49:34.577Z,80.67
2018-03-23T05:52:02.650Z,82.03
2018-03-23T05:54:32.512Z,78.60
2018-03-23T05:57:01.338Z,73.40
2018-03-23T05:59:29.388Z,75.80
2018-03-23T06:01:57.436Z,73.53
2018-03-23T06:04:25.510Z,71.97
2018-03-23T06:06:53.556Z,73.63
2018-03-23T06:09:22.361Z,70.37
2018-03-23T06:11:51.196Z,68.93
2018-03-23T06:14:19.258Z,81.20
2018-03-23T06:16:47.301Z,74.37
2018-03-23T06:19:15.360Z,76.27
2018-03-23T06:21:43.402Z,70.10
2018-03-23T06:24:11.456Z,72.03
2018-03-23T06:26:39.497Z,67.90
2018-03-23T06:29:07.553Z,68.57
2018-03-23T06:31:35.653Z,67.83
2018-03-23T06:34:03.709Z,64.13
2018-03-23T06:36:32.538Z,63.60
2018-03-23T06:39:00.596Z,62.73
2018-03-23T06:41:29.414Z,62.97
2018-03-23T06:43:58.220Z,69.83
2018-03-23T06:46:26.304Z,63.57
2018-03-23T06:48:54.357Z,59.73
2018-03-23T06:51:22.424Z,65.23
2018-03-23T06:53:50.517Z,66.83
2018-03-23T06:56:18.572Z,68.87
2018-03-23T06:58:46.633Z,64.67
2018-03-23T07:01:14.690Z,68.63
2018-03-23T07:03:42.754Z,67.83
2018-03-23T07:06:10.818Z,60.50
2018-03-23T07:08:38.870Z,63.23
2018-03-23T07:11:06.900Z,68.87
2018-03-23T07:13:34.965Z,61.97
2018-03-23T07:16:03.000Z,62.90
2018-03-23T07:18:31.822Z,62.43
2018-03-23T07:20:59.860Z,61.57
2018-03-23T07:23:27.916Z,65.70
2018-03-23T07:25:55.973Z,60.13
2018-03-23T07:28:24.012Z,65.73
2018-03-23T07:30:52.053Z,66.30
2018-03-23T07:33:20.115Z,62.13
2018-03-23T07:35:49.164Z,68.43
2018-03-23T07:38:17.222Z,63.80
2018-03-23T07:40:45.277Z,61.40
2018-03-23T07:43:14.164Z,57.30
2018-03-23T07:45:42.224Z,71.17
2018-03-23T07:48:10.261Z,63.90
2018-03-23T07:50:39.080Z,81.30
2018-03-23T07:53:07.136Z,91.13
2018-03-23T07:55:35.952Z,76.90
2018-03-23T07:58:03.992Z,77.50
2018-03-23T08:00:32.085Z,69.77
2018-03-23T08:03:00.128Z,64.93
2018-03-23T08:05:28.192Z,67.03
2018-03-23T08:07:56.230Z,62.77
2018-03-23T08:10:24.268Z,60.47
2018-03-23T08:12:52.325Z,62.20
2018-03-23T08:15:21.133Z,60.90
2018-03-23T08:17:50.082Z,66.50
2018-03-23T08:20:18.157Z,62.40
2018-03-23T08:22:46.216Z,61.63
2018-03-23T08:25:15.018Z,63.50
2018-03-23T08:27:43.844Z,67.03
2018-03-23T08:30:12.015Z,68.57
2018-03-23T08:32:40.097Z,63.80
2018-03-23T08:35:08.143Z,66.47
2018-03-23T08:37:36.212Z,63.93
2018-03-23T08:40:04.258Z,61.53
2018-03-23T08:42:32.325Z,56.23
2018-03-23T08:45:01.156Z,66.10
2018-03-23T08:47:29.172Z,69.80
2018-03-23T08:49:57.224Z,66.70
2018-03-23T08:52:25.286Z,69.03
2018-03-23T08:54:54.097Z,62.63
2018-03-23T08:57:22.140Z,63.40
2018-03-23T08:59:50.205Z,67.37
2018-03-23T09:02:18.245Z,63.10
2018-03-23T09:04:46.284Z,65.90
2018-03-23T09:07:14.353Z,62.70
2018-03-23T09:09:42.412Z,73.50
2018-03-23T09:12:10.449Z,65.53
2018-03-23T09:14:38.513Z,66.83
2018-03-23T09:17:06.561Z,67.67
2018-03-23T09:19:34.596Z,68.67
2018-03-23T09:22:02.657Z,67.60
2018-03-23T09:24:30.709Z,73.53
2018-03-23T09:26:58.770Z,74.77
2018-03-23T09:29:27.572Z,67.00
2018-03-23T09:31:56.393Z,64.17
2018-03-23T09:34:25.220Z,58.03
2018-03-23T09:36:53.266Z,55.97
2018-03-23T09:39:21.304Z,59.97
2018-03-23T09:41:49.426Z,61.20
2018-03-23T09:44:17.529Z,57.27
2018-03-23T09:46:45.573Z,57.00
2018-03-23T09:49:13.625Z,56.23
2018-03-23T09:51:41.685Z,54.93
2018-03-23T09:54:09.749Z,49.53
2018-03-23T09:56:38.576Z,47.63
2018-03-23T09:59:06.636Z,47.80
2018-03-23T10:01:35.441Z,41.67
2018-03-23T10:04:04.315Z,45.07
2018-03-23T10:06:32.469Z,37.03
2018-03-23T10:09:00.533Z,38.43
2018-03-23T10:11:28.628Z,37.07
2018-03-23T10:13:56.656Z,42.53
2018-03-23T10:16:26.205Z,43.10
2018-03-23T10:18:55.025Z,47.47
2018-03-23T10:21:23.062Z,50.33
2018-03-23T10:23:51.589Z,45.83
2018-03-23T10:26:19.628Z,43.67
2018-03-23T10:28:47.677Z,40.17
2018-03-23T10:31:15.709Z,36.80
2018-03-23T10:33:43.764Z,38.83
2018-03-23T10:38:45.334Z,37.00
2018-03-23T10:41:13.390Z,34.60
2018-03-23T10:43:42.216Z,34.57
2018-03-23T10:46:10.259Z,33.70
2018-03-23T10:48:38.300Z,31.50
2018-03-23T10:51:06.359Z,33.37
2018-03-23T10:53:34.468Z,29.13
2018-03-23T10:56:03.975Z,28.47
2018-03-23T10:58:32.017Z,30.33
2018-03-23T11:01:05.632Z,29.33
2018-03-23T11:03:34.445Z,26.30
2018-03-23T11:06:03.283Z,27.00
2018-03-23T11:08:31.328Z,30.60
2018-03-23T11:11:00.136Z,26.07
2018-03-23T11:13:28.966Z,24.97
2018-03-23T11:15:57.008Z,24.50
2018-03-23T11:18:25.138Z,25.80
2018-03-23T11:20:53.190Z,23.40
2018-03-23T11:23:21.996Z,24.20
2018-03-23T11:25:50.804Z,23.03
2018-03-23T11:28:19.629Z,22.27
2018-03-23T11:30:47.664Z,28.07
2018-03-23T11:33:17.224Z,23.43
2018-03-23T11:35:45.269Z,22.97
2018-03-23T11:38:14.080Z,22.13
2018-03-23T11:40:42.905Z,22.20
2018-03-23T11:43:10.948Z,19.30
2018-03-23T11:45:39.000Z,21.43
2018-03-23T11:48:07.069Z,19.37
2018-03-23T11:50:35.104Z,21.83
2018-03-23T11:53:03.166Z,23.50
2018-03-23T11:55:31.213Z,21.80
2018-03-23T11:57:59.255Z,20.93
2018-03-23T12:00:27.323Z,18.60
2018-03-23T12:02:55.377Z,21.27
2018-03-23T12:05:23.432Z,18.53
2018-03-23T12:07:52.303Z,20.07
2018-03-23T12:10:20.342Z,23.07
2018-03-23T12:12:48.380Z,21.00
2018-03-23T12:15:16.432Z,21.77
2018-03-23T12:17:44.473Z,21.33
2018-03-23T12:20:13.300Z,21.70
2018-03-23T12:22:41.358Z,20.70
2018-03-23T12:25:10.168Z,20.33
2018-03-23T12:27:38.994Z,18.83
2018-03-23T12:30:07.040Z,20.40
2018-03-23T12:32:35.864Z,19.67
2018-03-23T12:35:03.909Z,19.57
2018-03-23T12:37:31.969Z,20.93
2018-03-23T12:40:00.016Z,21.70
2018-03-23T12:42:28.062Z,23.35
2018-03-23T12:44:56.112Z,18.90
2018-03-23T12:47:24.144Z,19.40
2018-03-23T12:49:52.988Z,20.57
2018-03-23T12:52:21.025Z,21.50
2018-03-23T12:54:49.080Z,19.87
2018-03-23T12:57:17.119Z,19.10
2018-03-23T12:59:45.173Z,22.17
2018-03-23T13:02:13.209Z,18.73
2018-03-23T13:04:41.261Z,17.97
2018-03-23T13:07:10.093Z,17.60
2018-03-23T13:09:38.128Z,17.60
2018-03-23T13:12:06.186Z,20.27
2018-03-23T13:14:34.248Z,20.83
2018-03-23T13:17:02.345Z,19.97
2018-03-23T13:19:31.104Z,18.97
2018-03-23T13:21:59.928Z,21.93
2018-03-23T13:24:28.013Z,18.93
2018-03-23T13:26:56.068Z,18.70
2018-03-23T13:29:24.873Z,16.17
2018-03-23T13:31:53.726Z,18.67
2018-03-23T13:34:21.766Z,19.60
2018-03-23T13:36:50.588Z,22.97
2018-03-23T13:39:18.624Z,21.70
2018-03-23T13:41:46.665Z,23.20
2018-03-23T13:44:14.715Z,25.60
2018-03-23T13:46:43.538Z,26.30
2018-03-23T13:49:11.620Z,23.63
2018-03-23T13:51:39.689Z,23.50
2018-03-23T13:54:08.672Z,22.77
2018-03-23T13:56:38.233Z,20.77
2018-03-23T13:59:11.977Z,19.40
2018-03-23T14:01:41.778Z,20.67
2018-03-23T14:04:09.813Z,20.97
2018-03-23T14:06:38.640Z,19.10
2018-03-23T14:09:07.440Z,21.90
2018-03-23T14:11:36.275Z,22.00
2018-03-23T14:14:04.304Z,19.70
2018-03-23T14:16:33.878Z,20.43
2018-03-23T14:19:01.912Z,21.07
2018-03-23T14:21:31.460Z,21.90
2018-03-23T14:23:59.517Z,19.30
2018-03-23T14:26:27.608Z,20.57
2018-03-23T14:28:56.520Z,21.00
2018-03-23T14:31:24.481Z,20.43
2018-03-23T14:33:52.524Z,22.17
2018-03-23T14:36:20.585Z,20.77
2018-03-23T14:38:48.619Z,21.33
2018-03-23T14:41:16.683Z,21.33
2018-03-23T14:43:44.716Z,23.90
2018-03-23T14:46:13.536Z,24.13
2018-03-23T14:48:41.574Z,24.33
2018-03-23T14:51:09.629Z,22.43
2018-03-23T14:53:37.710Z,22.47
2018-03-23T14:56:05.754Z,22.60
2018-03-23T14:58:39.471Z,22.20
2018-03-23T15:01:07.528Z,23.67
2018-03-23T15:03:35.564Z,21.67
2018-03-23T15:06:03.624Z,23.20
2018-03-23T15:08:32.428Z,22.00
2018-03-23T15:11:01.256Z,21.93
2018-03-23T15:13:29.301Z,22.80
2018-03-23T15:15:57.554Z,23.60
2018-03-23T15:18:25.617Z,23.80
2018-03-23T15:20:53.656Z,22.73
2018-03-23T15:23:21.712Z,24.83
2018-03-23T15:25:49.752Z,23.70
2018-03-23T15:28:18.591Z,22.43
2018-03-23T15:30:46.636Z,22.50
2018-03-23T15:33:15.440Z,25.87
2018-03-23T15:35:44.261Z,24.10
2018-03-23T15:38:12.349Z,23.83
2018-03-23T15:40:40.403Z,26.13
2018-03-23T15:43:09.228Z,24.73
2018-03-23T15:45:37.304Z,24.80
2018-03-23T15:48:05.348Z,28.10
2018-03-23T15:50:33.397Z,28.27
2018-03-23T15:53:01.473Z,26.07
2018-03-23T15:55:29.519Z,28.00
2018-03-23T15:57:57.598Z,27.63
2018-03-23T16:00:26.428Z,28.77
2018-03-23T16:02:54.484Z,26.20
2018-03-23T16:05:24.029Z,26.30
2018-03-23T16:07:52.851Z,26.43
2018-03-23T16:10:20.899Z,27.20
2018-03-23T16:12:48.937Z,25.97
2018-03-23T16:15:16.986Z,25.40
2018-03-23T16:17:45.797Z,25.13
2018-03-23T16:20:13.845Z,33.07
2018-03-23T16:22:43.401Z,32.47
2018-03-23T16:25:11.446Z,24.27
2018-03-23T16:27:39.497Z,26.13
2018-03-23T16:30:07.561Z,27.93
2018-03-23T16:32:35.592Z,27.00
2018-03-23T16:35:03.640Z,23.63
2018-03-23T16:37:31.685Z,23.97
2018-03-23T16:40:00.729Z,23.37
2018-03-23T16:42:28.768Z,144.07
2018-03-23T16:44:57.601Z,42.27
2018-03-23T16:47:25.640Z,36.53
2018-03-23T16:49:55.194Z,24.53
2018-03-23T16:52:23.998Z,24.97
2018-03-23T16:54:52.036Z,23.77
2018-03-23T16:57:20.176Z,23.40
2018-03-23T16:59:48.221Z,23.60
2018-03-23T17:02:17.044Z,22.83
2018-03-23T17:04:45.868Z,23.77
2018-03-23T17:07:13.908Z,24.30
2018-03-23T17:09:41.950Z,22.77
2018-03-23T17:12:10.010Z,24.17
2018-03-23T17:14:38.066Z,25.73
2018-03-23T17:17:06.873Z,24.37
2018-03-23T17:19:35.700Z,22.80
2018-03-23T17:22:03.732Z,23.53
2018-03-23T17:24:31.776Z,24.83
2018-03-23T17:27:00.017Z,27.43
2018-03-23T17:29:29.573Z,25.07
2018-03-23T17:31:57.642Z,26.03
2018-03-23T17:34:26.443Z,24.87
2018-03-23T17:36:55.248Z,22.80
2018-03-23T17:39:24.075Z,24.80
2018-03-23T17:41:52.121Z,28.00
2018-03-23T17:44:21.690Z,25.57
2018-03-23T17:46:49.732Z,27.70
2018-03-23T17:49:18.552Z,26.27
2018-03-23T17:51:47.365Z,26.30
2018-03-23T17:54:16.172Z,27.07
2018-03-23T17:56:44.232Z,28.60
2018-03-23T17:59:13.037Z,25.53
2018-03-23T18:01:41.869Z,28.77
2018-03-23T18:04:09.911Z,29.10
2018-03-23T18:06:37.981Z,29.07
2018-03-23T18:09:06.113Z,28.27
2018-03-23T18:11:34.168Z,46.03
2018-03-23T18:14:02.997Z,52.70
2018-03-23T18:16:31.053Z,71.37
2018-03-23T18:18:59.865Z,77.50
2018-03-23T18:21:28.684Z,52.77
2018-03-23T18:23:57.042Z,35.50
2018-03-23T18:26:25.870Z,29.60
2018-03-23T18:28:54.728Z,28.47
2018-03-23T18:31:22.749Z,27.60
2018-03-23T18:33:51.576Z,33.67
2018-03-23T18:36:19.616Z,35.00
2018-03-23T18:38:47.673Z,34.23
2018-03-23T18:41:15.713Z,31.43
2018-03-23T18:43:44.529Z,28.67
2018-03-23T18:46:12.589Z,26.27
2018-03-23T18:48:41.385Z,29.80
2018-03-23T18:51:10.209Z,33.47
2018-03-23T18:53:39.009Z,32.17
2018-03-23T18:56:07.091Z,30.90
2018-03-23T18:58:35.889Z,28.57
2018-03-23T19:01:04.710Z,33.80
2018-03-23T19:03:33.512Z,36.47
2018-03-23T19:06:01.563Z,32.97
2018-03-23T19:08:30.388Z,42.00
2018-03-23T19:10:58.432Z,30.63
2018-03-23T19:13:26.917Z,36.53
2018-03-23T19:15:55.113Z,31.60
2018-03-23T19:18:23.156Z,31.93
2018-03-23T19:20:51.208Z,30.93
2018-03-23T19:23:20.033Z,31.07
2018-03-23T19:25:48.077Z,25.07
2018-03-23T19:28:16.128Z,30.63
2018-03-23T19:30:44.170Z,33.20
2018-03-23T19:33:13.002Z,32.00
2018-03-23T19:35:41.041Z,32.50
2018-03-23T19:38:09.853Z,35.97
2018-03-23T19:40:38.670Z,32.67
2018-03-23T19:43:06.726Z,25.97
2018-03-23T19:45:35.546Z,32.27
2018-03-23T19:48:04.397Z,27.77
2018-03-23T19:50:32.456Z,28.77
2018-03-23T19:53:00.505Z,28.43
2018-03-23T19:55:29.308Z,27.97
2018-03-23T19:57:58.135Z,33.30
2018-03-23T20:00:26.169Z,29.40
2018-03-23T20:02:54.229Z,32.93
2018-03-23T20:05:22.277Z,24.77
2018-03-23T20:07:51.117Z,30.47
2018-03-23T20:10:19.141Z,30.30
2018-03-23T20:12:47.178Z,31.03
2018-03-23T20:15:15.248Z,28.23
2018-03-23T20:17:49.060Z,28.90
2018-03-23T20:20:22.760Z,33.57
2018-03-23T20:22:51.586Z,30.00
2018-03-23T20:25:19.628Z,27.77
2018-03-23T20:27:53.238Z,29.97
2018-03-23T20:30:21.337Z,35.97
2018-03-23T20:32:50.170Z,35.27
2018-03-23T20:35:18.221Z,33.43
2018-03-23T20:37:47.036Z,41.47
2018-03-23T20:40:15.864Z,45.53
2018-03-23T20:42:43.904Z,43.83
2018-03-23T20:45:11.974Z,56.53
2018-03-23T20:47:40.042Z,55.73
2018-03-23T20:50:08.098Z,47.30
2018-03-23T20:52:36.165Z,45.27
2018-03-23T20:55:04.969Z,45.63
2018-03-23T20:57:33.805Z,34.33
2018-03-23T21:00:01.854Z,36.60
2018-03-23T21:02:30.649Z,33.87
2018-03-23T21:04:59.474Z,32.40
2018-03-23T21:07:27.524Z,32.23
2018-03-23T21:09:56.349Z,35.77
2018-03-23T21:12:25.235Z,32.30
2018-03-23T21:14:53.268Z,38.10
2018-03-23T21:17:21.310Z,35.77
2018-03-23T21:19:50.133Z,39.07
2018-03-23T21:22:18.192Z,38.90
2018-03-23T21:24:47.001Z,37.73
2018-03-23T21:27:15.823Z,38.70
2018-03-23T21:29:43.872Z,39.80
2018-03-23T21:32:11.917Z,35.37
2018-03-23T21:34:39.973Z,40.27
2018-03-23T21:37:08.016Z,33.63
2018-03-23T21:39:36.063Z,32.60
2018-03-23T21:42:04.279Z,32.23
2018-03-23T21:44:32.321Z,27.30
2018-03-23T21:47:00.377Z,31.13
2018-03-23T21:49:29.196Z,28.77
2018-03-23T21:51:57.262Z,30.17
2018-03-23T21:54:26.109Z,31.17
2018-03-23T21:56:54.165Z,27.73
2018-03-23T21:59:22.212Z,27.23
2018-03-23T22:01:50.275Z,30.23
2018-03-23T22:04:18.325Z,35.43
2018-03-23T22:06:46.360Z,42.27
2018-03-23T22:09:14.417Z,33.03
2018-03-23T22:11:42.476Z,27.83
2018-03-23T22:14:10.517Z,28.40
2018-03-23T22:16:38.589Z,28.13
2018-03-23T22:19:06.628Z,26.87
2018-03-23T22:21:34.660Z,31.10
2018-03-23T22:24:02.732Z,32.33
2018-03-23T22:26:30.777Z,29.10
2018-03-23T22:28:58.817Z,28.80
2018-03-23T22:31:26.878Z,30.40
2018-03-23T22:33:54.921Z,34.27
2018-03-23T22:36:23.722Z,30.23
2018-03-23T22:38:52.553Z,40.60
2018-03-23T22:41:20.595Z,46.93
2018-03-23T22:43:48.628Z,32.40
2018-03-23T22:46:16.689Z,31.77
2018-03-23T22:48:44.732Z,28.93
2018-03-23T22:51:13.558Z,28.70
2018-03-23T22:53:42.359Z,32.33
2018-03-23T22:56:11.180Z,29.73
2018-03-23T22:58:39.221Z,33.63
2018-03-23T23:01:07.273Z,33.43
2018-03-23T23:03:35.334Z,34.70
2018-03-23T23:06:04.148Z,32.57
2018-03-23T23:08:32.184Z,33.60
2018-03-23T23:11:00.308Z,32.50
2018-03-23T23:13:28.400Z,35.03
2018-03-23T23:15:56.456Z,38.03
2018-03-23T23:18:25.288Z,60.03
2018-03-23T23:20:53.370Z,105.97
2018-03-23T23:23:21.408Z,115.77
2018-03-23T23:25:49.477Z,123.87
2018-03-23T23:28:17.525Z,96.33
2018-03-23T23:30:45.597Z,83.77
2018-03-23T23:33:13.638Z,80.57
2018-03-23T23:35:41.685Z,81.47
2018-03-23T23:38:09.740Z,71.53
2018-03-23T23:40:38.561Z,76.23
2018-03-23T23:43:06.603Z,92.03
2018-03-23T23:45:34.689Z,71.20
2018-03-23T23:48:02.697Z,79.87
2018-03-23T23:50:31.548Z,77.47
2018-03-23T23:52:59.667Z,76.97
2018-03-23T23:55:27.716Z,77.47
2018-03-23T23:57:55.762Z,79.73
